New Richland, MN (56072)

6:45 AM CST on February 23, 2018 (GMT -0600)
OTISCO TOWNSHIP | | Change Station
Active Advisory: Winter Storm Watch

Elev 1175 ft 44.01 °N, 93.48 °W | Updated 17 seconds ago

Mostly Cloudy
Mostly Cloudy
25.4 °F
Feels Like 25 °F
N
0.0
Wind Variable Wind from SW

Today
High -- | Low -- °F
--% Chance of Precip.
Yesterday
High -- | Low -- °F
Precip. -- in
Pressure 30.09 in
Visibility 10.0 miles
Clouds Scattered Clouds 1100 ft
Overcast 3200 ft
Windchill 25 °F
Dew Point 24 °F
Humidity 95%
Rainfall 0.00 in
Snow Depth Not available.
7:00 AM 5:54 PM
First Quarter, 52% visible
METAR KACQ 231235Z AUTO 26011KT 10SM SCT011 OVC032 M03/M05 A3009 RMK AO2
Pressure 30.09 in
Visibility 10.0 miles
Clouds Scattered Clouds 1100 ft
Overcast 3200 ft
Windchill 25 °F
Dew Point 24 °F
Humidity 95%
Rainfall 0.00 in
Snow Depth Not available.
7:00 AM 5:54 PM
First Quarter, 52% visible
METAR KACQ 231235Z AUTO 26011KT 10SM SCT011 OVC032 M03/M05 A3009 RMK AO2

Get Your Daily Forecast Email!

Thanks for signing up!

Be on the lookout for a verification email in your inbox.

You'll start receiving severe weather alerts in your inbox..

×

10-Day Weather Forecast

Almanac

Astronomy

Feb. 23, 2018 Rise Set
Actual Time
Civil Twilight
Nautical Twilight
Astronomical Twilight
Moon
Length of Visible Light
Length of Day
Tomorrow will be .
, % of the Moon is Illuminated

Today's Extremes

State Highs State Lows

Community

WunderPhotos

Category 6

Welcome to Category 6. This is the collective home for Weather Underground's featured writeups by Dr. Jeff Masters (right), Bob Henson (left), Chris Burt, and other regular contributors.

Nearby

Air Quality

  Air Quality AQ Index Pollutant
Not available.

Snow Depth

Station Depth Elevation

Earthquake Activity

City Distance Mag. Time & Date
Minimum magnitude displayed is 2.5.

Coastal Water Temperatures

Place Temperature

Stations

Nearby Weather Stations

Station Location Temp. Windchill Dew Point Humidity Wind Precip. Elev Updated Type
                   

Watches & Warnings

Winter Storm Watch
Issued: 6:13 AM CST Feb. 23, 2018 – National Weather Service

... Winter Storm Watch remains in effect from Saturday afternoon
through late Saturday night...

* what... heavy snow with mixed precipitation possible. Plan on
difficult travel conditions. Total snow accumulations of 5 to 8
inches and ice accumulations of a light glaze are possible.

* Where... Waseca and Freeborn counties.

* When... from Saturday afternoon through late Saturday night.

* Additional details... winds gusting as high as 30 mph will
cause patchy blowing and drifting snow.

Precautionary/preparedness actions...

A Winter Storm Watch means there is potential for significant
snow accumulations that may impact travel. Continue to monitor
the latest forecasts.


Jrb